Time;durP1;ratioP1;P1;durP2;ratioP2;P2;SDS_P1;SDS_P2;PMS_P1;PMS_P2;Temp;Humidity;BMP_temperature;BMP_pressure;BME280_temperature;BME280_humidity;BME280_pressure;Samples;Min_cycle;Max_cycle;Signal;HPM_P1;HPM_P2
2022/01/01 00:02:01;;;;;;;5.73;2.90;;;;;;;19.34;58.98;101386.81;5068801;28;20175;-59
2022/01/01 00:04:26;;;;;;;5.13;2.93;;;;;;;19.28;59.00;101385.38;5068355;28;20812;-60
2022/01/01 00:06:52;;;;;;;6.57;3.03;;;;;;;19.31;59.01;101386.69;5068765;28;20206;-60
2022/01/01 00:09:17;;;;;;;4.10;2.73;;;;;;;19.29;59.36;101386.22;5068791;28;20544;-60
2022/01/01 00:11:43;;;;;;;6.43;3.10;;;;;;;19.29;58.67;101389.06;5068349;28;20612;-60
2022/01/01 00:14:08;;;;;;;5.00;2.50;;;;;;;19.29;59.42;101394.78;5068887;28;20179;-60
2022/01/01 00:16:34;;;;;;;8.17;3.13;;;;;;;19.29;58.92;101397.66;5068644;28;20655;-60
2022/01/01 00:18:59;;;;;;;5.13;2.93;;;;;;;19.30;58.75;101408.75;5067962;28;20175;-60
2022/01/01 00:21:24;;;;;;;5.93;3.37;;;;;;;19.29;58.96;101411.97;5068205;28;20179;-60
2022/01/01 00:23:50;;;;;;;5.13;2.80;;;;;;;19.29;59.19;101411.97;5073504;28;20181;-60
2022/01/01 00:26:15;;;;;;;5.30;2.80;;;;;;;19.27;59.10;101409.47;5090315;28;20554;-60
2022/01/01 00:28:41;;;;;;;6.13;2.90;;;;;;;19.28;59.09;101410.31;5092293;28;20221;-60
2022/01/01 00:31:07;;;;;;;5.30;2.60;;;;;;;19.27;59.23;101418.06;5089174;28;20510;-60
2022/01/01 00:33:32;;;;;;;6.87;2.90;;;;;;;19.28;58.75;101427.50;5075502;28;20186;-60
2022/01/01 00:35:58;;;;;;;5.00;2.30;;;;;;;19.26;58.97;101410.66;5072446;28;20493;-61
2022/01/01 00:38:24;;;;;;;4.57;2.63;;;;;;;19.28;58.73;101414.03;5071538;28;20174;-60
2022/01/01 00:40:49;;;;;;;4.63;2.87;;;;;;;19.24;59.33;101406.50;5065248;28;20175;-60
2022/01/01 00:43:14;;;;;;;6.73;3.27;;;;;;;19.24;59.09;101417.94;5064087;28;20191;-60
2022/01/01 00:45:40;;;;;;;5.13;3.00;;;;;;;19.24;59.09;101413.06;5074170;28;20182;-60
2022/01/01 00:48:05;;;;;;;4.13;2.70;;;;;;;19.26;59.17;101416.38;5071930;28;20206;-60
2022/01/01 00:50:31;;;;;;;4.83;2.53;;;;;;;19.22;59.38;101415.44;5071091;28;20182;-60
2022/01/01 00:52:58;;;;;;;5.20;2.70;;;;;;;19.21;58.95;101416.59;5072068;28;20647;-61
2022/01/01 00:55:24;;;;;;;6.00;3.60;;;;;;;19.22;59.02;101426.88;5071436;28;20182;-60
2022/01/01 00:57:49;;;;;;;7.90;2.97;;;;;;;19.23;59.21;101427.72;5071359;28;20957;-60
2022/01/01 01:00:15;;;;;;;4.90;2.87;;;;;;;19.23;58.79;101420.00;5071058;28;20588;-60
2022/01/01 01:02:40;;;;;;;3.73;2.33;;;;;;;19.20;59.32;101429.25;5071672;28;20209;-60
2022/01/01 01:05:06;;;;;;;5.37;2.80;;;;;;;19.20;59.23;101426.38;5071869;28;20198;-60
2022/01/01 01:07:31;;;;;;;6.90;3.00;;;;;;;19.23;58.79;101433.47;5070217;28;20678;-60
2022/01/01 01:09:57;;;;;;;6.23;3.00;;;;;;;19.24;58.66;101437.97;5071420;28;20205;-60
2022/01/01 01:12:26;;;;;;;3.90;2.43;;;;;;;19.22;58.94;101426.88;5071161;28;20639;-60
2022/01/01 01:14:52;;;;;;;5.67;2.83;;;;;;;19.20;58.97;101431.25;5071165;28;20257;-60
2022/01/01 01:17:18;;;;;;;8.03;2.80;;;;;;;19.21;59.25;101439.50;5070610;28;20428;-60
2022/01/01 01:19:44;;;;;;;4.90;2.80;;;;;;;19.20;58.83;101434.13;5070952;28;20457;-60
2022/01/01 01:22:09;;;;;;;4.93;2.60;;;;;;;19.20;58.94;101437.84;5070684;28;20176;-60
2022/01/01 01:24:35;;;;;;;4.97;2.90;;;;;;;19.19;58.91;101433.31;5070934;28;20230;-59
2022/01/01 01:27:03;;;;;;;5.13;2.63;;;;;;;19.17;59.26;101438.53;5070941;28;20183;-60
2022/01/01 01:29:30;;;;;;;6.70;2.73;;;;;;;19.18;59.07;101447.97;5052672;28;20210;-61
2022/01/01 01:31:56;;;;;;;4.13;2.60;;;;;;;19.18;58.81;101447.97;5071097;28;20424;-60
2022/01/01 01:34:21;;;;;;;5.10;2.40;;;;;;;19.18;59.02;101454.56;5070693;28;20409;-60
2022/01/01 01:36:47;;;;;;;4.57;2.70;;;;;;;19.19;58.77;101453.34;5070237;28;20175;-60
2022/01/01 01:39:12;;;;;;;4.57;2.40;;;;;;;19.18;58.93;101457.41;5070260;28;20173;-60
2022/01/01 01:41:38;;;;;;;5.70;2.90;;;;;;;19.17;59.11;101467.16;5070992;28;20215;-60
2022/01/01 01:44:25;;;;;;;4.27;2.53;;;;;;;19.17;58.97;101458.56;5071100;28;20179;-61
2022/01/01 01:46:50;;;;;;;3.97;2.70;;;;;;;19.17;58.81;101458.56;5050089;28;20183;-60
2022/01/01 01:49:16;;;;;;;4.97;2.60;;;;;;;19.14;59.09;101453.59;5050023;28;20462;-60
2022/01/01 01:51:41;;;;;;;4.77;2.67;;;;;;;19.16;59.17;101456.09;5050803;28;20530;-60
2022/01/01 01:54:08;;;;;;;6.10;3.03;;;;;;;19.17;59.18;101449.19;5051051;28;20450;-60
2022/01/01 01:56:34;;;;;;;3.90;2.33;;;;;;;19.18;59.02;101454.56;5032766;28;20746;-60
2022/01/01 01:59:00;;;;;;;4.33;2.60;;;;;;;19.15;58.94;101440.94;5049962;28;20475;-60
2022/01/01 02:01:27;;;;;;;5.90;2.67;;;;;;;19.17;59.07;101432.81;5051011;28;20302;-60
2022/01/01 02:03:56;;;;;;;4.10;2.60;;;;;;;19.16;58.99;101434.00;5050613;28;20203;-60
2022/01/01 02:06:21;;;;;;;6.20;3.10;;;;;;;19.16;59.03;101428.28;5049626;28;20453;-60
2022/01/01 02:08:49;;;;;;;4.73;3.10;;;;;;;19.16;59.09;101419.69;5031954;28;20540;-60
2022/01/01 02:11:15;;;;;;;4.27;2.50;;;;;;;19.14;58.74;101418.38;5049887;28;20175;-60
2022/01/01 02:14:17;;;;;;;5.47;3.20;;;;;;;19.13;59.08;101417.56;5049391;28;20418;-60
2022/01/01 02:16:39;;;;;;;8.63;3.17;;;;;;;19.14;59.03;101407.78;5046160;28;20278;-60
2022/01/01 02:19:05;;;;;;;3.97;2.20;;;;;;;19.15;59.29;101409.44;5066924;28;20413;-60
2022/01/01 02:21:30;;;;;;;5.50;2.67;;;;;;;19.14;59.02;101406.94;5070026;28;20418;-60
2022/01/01 02:23:59;;;;;;;4.83;2.80;;;;;;;19.14;58.71;101399.19;5070492;28;20177;-60
2022/01/01 02:26:34;;;;;;;4.40;2.67;;;;;;;19.15;58.86;101409.44;5089943;28;20540;-60
2022/01/01 02:29:00;;;;;;;3.60;2.30;;;;;;;19.16;58.74;101398.84;5089431;28;20451;-60
2022/01/01 02:31:25;;;;;;;5.03;3.00;;;;;;;19.15;58.62;101389.41;5079836;28;20827;-60
2022/01/01 02:33:51;;;;;;;4.70;3.03;;;;;;;19.12;59.03;101392.16;5069176;28;20185;-60
2022/01/01 02:36:31;;;;;;;4.50;2.87;;;;;;;19.11;59.04;101390.50;5069649;28;20258;-60
2022/01/01 02:38:56;;;;;;;4.07;2.50;;;;;;;19.12;58.78;101390.13;5041576;28;20167;-60
2022/01/01 02:41:21;;;;;;;4.70;2.50;;;;;;;19.11;59.05;101394.19;5051881;28;20945;-60
2022/01/01 02:43:47;;;;;;;6.90;2.90;;;;;;;19.11;58.89;101385.59;5051622;28;20180;-60
2022/01/01 02:46:12;;;;;;;5.10;2.57;;;;;;;19.11;58.90;101397.03;5048696;28;20259;-60
2022/01/01 02:48:38;;;;;;;6.23;3.03;;;;;;;19.10;59.17;101389.66;5049537;28;20207;-60
2022/01/01 02:51:05;;;;;;;3.73;2.90;;;;;;;19.11;59.03;101396.22;5048532;28;20183;-60
2022/01/01 02:53:30;;;;;;;5.90;3.00;;;;;;;19.13;58.62;101391.81;5049709;28;20176;-60
2022/01/01 02:55:55;;;;;;;3.37;2.30;;;;;;;19.13;58.94;101382.38;5049636;28;20426;-60
2022/01/01 02:58:21;;;;;;;5.20;2.83;;;;;;;19.09;59.13;101382.25;5049003;28;20160;-60
2022/01/01 03:00:46;;;;;;;4.20;2.57;;;;;;;19.09;59.12;101388.00;5049254;28;20719;-59
2022/01/01 03:03:12;;;;;;;3.67;2.17;;;;;;;19.08;59.20;101386.31;5048729;28;20632;-60
2022/01/01 03:05:37;;;;;;;3.90;2.50;;;;;;;19.10;58.75;101386.78;5049512;28;20180;-61
2022/01/01 03:08:04;;;;;;;3.20;2.30;;;;;;;19.08;58.99;101385.47;5049111;28;20188;-60
2022/01/01 03:10:29;;;;;;;6.47;3.20;;;;;;;19.09;58.89;101381.41;5048967;28;20175;-60
2022/01/01 03:12:55;;;;;;;4.60;2.60;;;;;;;19.07;59.03;101384.63;5049321;28;20429;-60
2022/01/01 03:15:20;;;;;;;4.23;2.43;;;;;;;19.06;59.11;101385.00;5066228;28;20570;-60
2022/01/01 03:17:48;;;;;;;4.50;2.60;;;;;;;19.06;58.94;101380.09;5075005;28;20175;-60
2022/01/01 03:20:14;;;;;;;4.40;2.90;;;;;;;19.06;59.01;101385.00;5088472;28;20268;-60
2022/01/01 03:22:39;;;;;;;4.73;2.60;;;;;;;19.08;58.90;101371.16;5089332;28;20413;-60
2022/01/01 03:25:05;;;;;;;3.40;2.10;;;;;;;19.08;58.93;101380.59;5089683;28;20625;-60
2022/01/01 03:27:30;;;;;;;4.53;2.60;;;;;;;19.07;58.73;101378.91;5088500;28;20587;-60
2022/01/01 03:29:56;;;;;;;4.00;2.70;;;;;;;19.09;58.68;101370.81;5089270;28;20536;-60
2022/01/01 03:32:21;;;;;;;5.43;2.50;;;;;;;19.07;58.82;101369.50;5076504;28;20191;-60
2022/01/01 03:34:46;;;;;;;5.40;3.00;;;;;;;19.05;58.75;101369.84;5049400;28;20571;-59
2022/01/01 03:37:12;;;;;;;3.80;2.50;;;;;;;19.03;58.83;101363.66;5065875;28;20649;-60
2022/01/01 03:39:37;;;;;;;5.10;2.80;;;;;;;19.02;59.09;101361.97;5068799;28;20170;-60
2022/01/01 03:42:03;;;;;;;4.30;2.40;;;;;;;19.03;59.03;101365.69;5068659;28;20171;-60
2022/01/01 03:44:28;;;;;;;6.07;2.70;;;;;;;19.02;59.42;101364.03;5069665;28;20183;-61
2022/01/01 03:47:00;;;;;;;4.33;2.40;;;;;;;19.04;58.88;101351.03;5068588;28;20167;-60
2022/01/01 03:49:26;;;;;;;5.57;2.70;;;;;;;19.03;59.04;101355.09;5069459;28;20525;-60
2022/01/01 03:51:51;;;;;;;4.37;2.57;;;;;;;19.03;59.22;101355.09;5069301;28;20413;-60
2022/01/01 03:54:18;;;;;;;3.47;2.50;;;;;;;19.04;59.01;101359.59;5068756;28;20179;-59
2022/01/01 03:56:43;;;;;;;4.57;3.00;;;;;;;19.04;59.21;101350.19;5068973;28;20198;-61
2022/01/01 03:59:09;;;;;;;4.90;2.40;;;;;;;19.02;59.05;101344.81;5067342;28;20492;-60
2022/01/01 04:01:34;;;;;;;6.57;2.83;;;;;;;19.03;58.85;101352.22;5070448;28;20638;-60
2022/01/01 04:03:59;;;;;;;3.97;2.30;;;;;;;19.03;58.96;101352.22;5073145;28;20175;-60
2022/01/01 04:06:25;;;;;;;5.27;2.60;;;;;;;19.02;58.91;101352.56;5072682;28;20202;-60
2022/01/01 04:08:50;;;;;;;5.47;3.07;;;;;;;19.05;58.72;101354.69;5072847;28;20195;-60
2022/01/01 04:11:16;;;;;;;4.53;2.43;;;;;;;19.02;59.21;101344.00;5072354;28;20222;-60
2022/01/01 04:13:41;;;;;;;3.77;2.30;;;;;;;19.02;58.95;101346.84;5072493;28;20187;-60
2022/01/01 04:16:07;;;;;;;5.17;2.93;;;;;;;19.02;58.81;101353.41;5072359;28;20184;-60
2022/01/01 04:18:38;;;;;;;4.90;2.53;;;;;;;19.02;59.07;101353.41;5071276;28;20163;-60
2022/01/01 04:21:10;;;;;;;5.20;2.77;;;;;;;19.04;58.57;101353.88;5072733;28;20167;-60
2022/01/01 04:23:36;;;;;;;4.37;2.70;;;;;;;19.03;58.81;101354.25;5052702;28;20829;-61
2022/01/01 04:26:02;;;;;;;3.90;2.40;;;;;;;19.01;58.83;101354.59;5052566;28;20417;-60
2022/01/01 04:28:27;;;;;;;5.00;3.10;;;;;;;19.02;58.91;101352.56;5051999;28;20465;-60
2022/01/01 04:30:53;;;;;;;4.20;2.50;;;;;;;19.03;58.92;101354.25;5054665;28;20175;-60
2022/01/01 04:33:18;;;;;;;3.60;2.50;;;;;;;19.03;58.87;101360.81;5065590;28;20186;-60
2022/01/01 04:35:44;;;;;;;3.17;2.43;;;;;;;19.03;58.59;101355.09;5072047;28;20171;-60
2022/01/01 04:38:22;;;;;;;3.87;2.60;;;;;;;19.01;58.91;101360.31;5069208;28;20207;-59
2022/01/01 04:40:47;;;;;;;5.97;3.30;;;;;;;19.04;58.45;101350.19;5053195;28;20672;-59
2022/01/01 04:43:13;;;;;;;3.97;2.43;;;;;;;19.03;58.48;101366.53;5070201;28;20420;-60
2022/01/01 04:45:38;;;;;;;4.20;2.83;;;;;;;19.03;58.49;101366.53;5072172;28;20175;-60
2022/01/01 04:48:04;;;;;;;3.67;2.30;;;;;;;19.01;58.91;101365.22;5070717;28;20191;-60
2022/01/01 04:50:29;;;;;;;4.37;2.50;;;;;;;19.01;59.00;101363.19;5069343;28;20186;-60
2022/01/01 04:52:56;;;;;;;4.80;2.60;;;;;;;19.01;58.99;101368.91;5071733;28;20681;-59
2022/01/01 04:55:23;;;;;;;5.83;2.57;;;;;;;19.01;58.75;101374.63;5070639;28;20232;-60
2022/01/01 04:57:48;;;;;;;3.57;2.30;;;;;;;19.00;58.97;101372.97;5071582;28;20516;-59
2022/01/01 05:00:14;;;;;;;4.50;2.80;;;;;;;19.01;58.65;101368.91;5071221;28;20457;-60
2022/01/01 05:02:39;;;;;;;4.00;2.57;;;;;;;18.99;58.99;101368.44;5071537;28;20173;-60
2022/01/01 05:05:05;;;;;;;3.23;2.40;;;;;;;19.01;58.95;101370.94;5071353;28;20172;-60
2022/01/01 05:07:30;;;;;;;3.70;2.80;;;;;;;19.00;58.63;101370.09;5070444;28;20697;-60
2022/01/01 05:09:56;;;;;;;3.83;2.63;;;;;;;19.02;59.09;101382.00;5071022;28;20432;-59
2022/01/01 05:12:22;;;;;;;5.10;2.50;;;;;;;19.01;58.73;101388.13;5070040;28;20174;-60
2022/01/01 05:14:47;;;;;;;3.93;2.60;;;;;;;19.02;58.68;101382.00;5071465;28;20183;-60
2022/01/01 05:17:14;;;;;;;3.90;2.80;;;;;;;19.02;58.46;101384.88;5071097;28;20171;-60
2022/01/01 05:19:39;;;;;;;4.93;2.70;;;;;;;19.01;58.83;101385.25;5071340;28;20183;-60
2022/01/01 05:22:05;;;;;;;4.40;2.50;;;;;;;19.02;58.54;101382.00;5071447;28;20439;-59
2022/01/01 05:24:30;;;;;;;3.47;2.53;;;;;;;18.99;59.01;101384.75;5070174;28;20182;-60
2022/01/01 05:26:55;;;;;;;4.00;2.50;;;;;;;19.01;58.80;101388.94;5070293;28;20178;-60
2022/01/01 05:29:21;;;;;;;3.83;2.50;;;;;;;19.03;58.69;101394.31;5071570;28;20705;-60
2022/01/01 05:31:46;;;;;;;4.13;2.30;;;;;;;19.01;58.38;101391.78;5070144;28;20178;-60
2022/01/01 05:34:12;;;;;;;3.97;2.70;;;;;;;19.04;58.29;101395.97;5070800;28;20228;-60
2022/01/01 05:36:37;;;;;;;4.40;2.43;;;;;;;19.00;58.41;101387.28;5071232;28;20220;-60
2022/01/01 05:39:03;;;;;;;4.00;2.33;;;;;;;19.01;58.65;101400.38;5070613;28;20167;-61
2022/01/01 05:41:28;;;;;;;4.87;2.50;;;;;;;19.02;58.55;101387.72;5071417;28;20633;-60
2022/01/01 05:43:54;;;;;;;3.50;2.53;;;;;;;19.01;58.48;101386.06;5070718;28;20175;-59
2022/01/01 05:46:19;;;;;;;2.87;2.07;;;;;;;19.04;58.34;101390.25;5070995;28;20171;-60
2022/01/01 05:48:44;;;;;;;4.10;3.20;;;;;;;19.01;58.83;101397.53;5069255;28;20245;-61
2022/01/01 05:51:10;;;;;;;3.77;2.13;;;;;;;19.00;58.41;101398.72;5070458;28;20509;-60
2022/01/01 05:53:35;;;;;;;3.90;2.50;;;;;;;19.01;58.50;101393.84;5069588;28;20178;-60
2022/01/01 05:56:01;;;;;;;4.20;2.60;;;;;;;19.02;58.75;101393.47;5070497;28;20615;-59
2022/01/01 05:58:26;;;;;;;3.83;2.43;;;;;;;18.99;58.90;101391.34;5070079;28;20732;-60
2022/01/01 06:00:52;;;;;;;4.97;2.57;;;;;;;18.98;58.81;101395.41;5070274;28;20191;-60
2022/01/01 06:03:18;;;;;;;5.87;2.97;;;;;;;18.99;58.56;101401.94;5069461;28;20159;-60
2022/01/01 06:05:44;;;;;;;3.90;2.67;;;;;;;19.01;58.81;101399.56;5070325;28;20171;-60
2022/01/01 06:08:09;;;;;;;4.77;2.50;;;;;;;19.00;58.90;101401.59;5035174;28;20234;-60
2022/01/01 06:10:34;;;;;;;3.80;2.30;;;;;;;19.01;58.52;101411.00;5070912;28;20171;-60
2022/01/01 06:13:00;;;;;;;3.07;2.20;;;;;;;19.00;58.46;101407.31;5070320;28;20175;-60
2022/01/01 06:15:25;;;;;;;4.70;2.83;;;;;;;18.99;58.49;101411.38;5070341;28;20167;-60
2022/01/01 06:17:51;;;;;;;3.57;2.40;;;;;;;19.00;58.75;101413.03;5069919;28;20174;-60
2022/01/01 06:20:16;;;;;;;5.40;2.90;;;;;;;18.99;58.79;101414.22;5069447;28;20171;-60
2022/01/01 06:22:42;;;;;;;4.37;2.70;;;;;;;19.00;58.53;101415.03;5068839;28;20171;-59
2022/01/01 06:25:08;;;;;;;3.03;2.00;;;;;;;19.00;58.50;101415.03;5070158;28;20181;-60
2022/01/01 06:27:33;;;;;;;4.60;2.70;;;;;;;19.04;58.29;101407.41;5068458;28;20191;-60
2022/01/01 06:29:59;;;;;;;4.47;2.60;;;;;;;19.00;58.35;101403.59;5070393;28;20244;-60
2022/01/01 06:32:24;;;;;;;3.93;2.57;;;;;;;19.00;58.40;101407.31;5066259;28;20527;-60
2022/01/01 06:34:49;;;;;;;4.33;2.70;;;;;;;19.01;58.35;101414.69;5048909;28;20222;-60
2022/01/01 06:37:15;;;;;;;5.50;2.87;;;;;;;19.02;58.21;101413.50;5048356;28;20229;-60
2022/01/01 06:39:40;;;;;;;4.57;2.50;;;;;;;19.00;58.38;101404.44;5051716;28;20171;-60
2022/01/01 06:42:06;;;;;;;5.33;2.50;;;;;;;19.00;58.39;101413.03;5049630;28;20168;-60
2022/01/01 06:44:32;;;;;;;3.67;2.30;;;;;;;19.02;58.68;101415.53;5051974;28;20256;-60
2022/01/01 06:46:57;;;;;;;4.50;2.50;;;;;;;19.01;58.49;101417.56;5045258;28;20259;-60
2022/01/01 06:49:22;;;;;;;4.13;2.43;;;;;;;19.01;58.48;101413.88;5069526;28;20202;-59
2022/01/01 06:51:48;;;;;;;3.83;2.50;;;;;;;19.03;58.25;101418.06;5069753;28;20483;-59
2022/01/01 06:54:13;;;;;;;3.50;2.30;;;;;;;19.03;58.39;101412.31;5069612;28;20163;-61
2022/01/01 06:56:39;;;;;;;4.37;2.40;;;;;;;19.01;58.26;101413.88;5068324;28;20175;-60
2022/01/01 06:59:04;;;;;;;4.60;2.50;;;;;;;18.98;58.01;101403.97;5068226;28;20211;-60
2022/01/01 07:01:30;;;;;;;3.83;2.17;;;;;;;19.04;58.26;101410.28;5069378;28;20171;-60
2022/01/01 07:03:55;;;;;;;3.37;2.10;;;;;;;19.01;58.90;101406.09;5069619;28;20186;-59
2022/01/01 07:06:21;;;;;;;4.30;2.60;;;;;;;19.00;58.68;101398.72;5051622;28;20666;-59
2022/01/01 07:08:46;;;;;;;4.57;2.43;;;;;;;19.02;58.17;101406.97;5069008;28;20276;-60
2022/01/01 07:11:12;;;;;;;3.70;2.60;;;;;;;19.03;58.54;101412.31;5069603;28;20158;-60
2022/01/01 07:13:38;;;;;;;2.90;1.97;;;;;;;19.03;58.30;101411.47;5069448;28;20587;-59
2022/01/01 07:16:04;;;;;;;4.70;2.50;;;;;;;19.01;58.51;101411.81;5068932;28;20630;-60
2022/01/01 07:18:29;;;;;;;4.73;2.60;;;;;;;19.01;58.36;101403.25;5068900;28;20179;-59
2022/01/01 07:20:55;;;;;;;3.10;2.10;;;;;;;19.05;58.39;101406.22;5069063;28;20425;-59
2022/01/01 07:23:20;;;;;;;4.70;2.57;;;;;;;19.02;58.48;101407.78;5049893;28;20178;-59
2022/01/01 07:25:46;;;;;;;5.20;2.70;;;;;;;19.02;58.40;101416.34;5069420;28;20175;-60
2022/01/01 07:28:14;;;;;;;2.83;2.10;;;;;;;19.03;58.26;101412.31;5068955;28;20544;-60
2022/01/01 07:30:40;;;;;;;5.03;2.17;;;;;;;19.02;58.53;101404.91;5069562;28;20353;-59
2022/01/01 07:33:05;;;;;;;3.87;2.63;;;;;;;19.04;58.03;101405.41;5068818;28;20513;-60
2022/01/01 07:35:36;;;;;;;5.33;2.83;;;;;;;19.02;58.16;101395.50;5069085;28;20174;-60
2022/01/01 07:38:01;;;;;;;3.13;2.40;;;;;;;18.99;58.30;101384.75;5072691;28;20159;-60
2022/01/01 07:40:26;;;;;;;3.67;2.20;;;;;;;19.02;58.21;101390.59;5073182;28;20912;-60
2022/01/01 07:42:52;;;;;;;5.00;2.30;;;;;;;19.02;58.38;101396.31;5073781;28;20151;-60
2022/01/01 07:45:17;;;;;;;4.67;2.80;;;;;;;19.04;58.45;101396.81;5073254;28;20174;-60
2022/01/01 07:47:43;;;;;;;3.93;2.13;;;;;;;19.03;58.32;101406.59;5072634;28;20199;-60
2022/01/01 07:50:09;;;;;;;2.90;1.90;;;;;;;19.05;57.98;101400.50;5072701;28;20202;-60
2022/01/01 07:52:34;;;;;;;4.20;2.83;;;;;;;19.04;58.07;101405.41;5072251;28;20167;-60
2022/01/01 07:54:59;;;;;;;4.00;2.60;;;;;;;19.04;58.32;101407.41;5072877;28;20171;-60
2022/01/01 07:57:25;;;;;;;5.30;3.00;;;;;;;19.04;58.33;101405.41;5072590;28;20155;-60
2022/01/01 07:59:50;;;;;;;3.90;2.40;;;;;;;19.05;58.05;101398.47;5072859;28;20226;-60
2022/01/01 08:02:16;;;;;;;3.77;2.57;;;;;;;19.02;58.29;101402.03;5072982;28;20164;-60
2022/01/01 08:04:41;;;;;;;3.97;2.30;;;;;;;19.04;58.35;101407.41;5072786;28;20614;-60
2022/01/01 08:07:06;;;;;;;6.27;2.40;;;;;;;19.04;58.48;101410.28;5072813;28;20198;-59
2022/01/01 08:09:32;;;;;;;4.23;2.47;;;;;;;19.05;58.77;101411.94;5072241;28;20206;-60
2022/01/01 08:11:57;;;;;;;3.60;2.37;;;;;;;19.05;57.93;101401.34;5071412;28;20171;-60
2022/01/01 08:14:23;;;;;;;4.30;2.83;;;;;;;19.07;57.74;101406.72;5072368;28;20171;-60
2022/01/01 08:16:57;;;;;;;3.40;2.17;;;;;;;19.06;58.05;101410.78;5072598;28;20228;-60
2022/01/01 08:19:22;;;;;;;4.50;2.60;;;;;;;19.07;57.98;101412.44;5072064;28;20171;-60
2022/01/01 08:21:48;;;;;;;4.00;2.73;;;;;;;19.04;58.42;101413.16;5072357;28;20783;-60
2022/01/01 08:24:13;;;;;;;3.47;2.30;;;;;;;19.06;58.13;101413.63;5072103;28;20533;-60
2022/01/01 08:26:38;;;;;;;4.00;2.53;;;;;;;19.06;58.00;101414.44;5072315;28;20171;-60
2022/01/01 08:29:04;;;;;;;3.70;2.13;;;;;;;19.07;57.99;101412.44;5071972;28;20183;-59
2022/01/01 08:31:29;;;;;;;3.80;2.43;;;;;;;19.04;58.08;101427.44;5071650;28;20175;-60
2022/01/01 08:33:55;;;;;;;3.30;2.10;;;;;;;19.07;58.20;101423.88;5071151;28;20185;-60
2022/01/01 08:36:21;;;;;;;3.90;2.50;;;;;;;19.07;58.06;101424.72;5072520;28;20602;-60
2022/01/01 08:38:46;;;;;;;3.37;2.23;;;;;;;19.09;57.97;101422.34;5072949;28;20176;-59
2022/01/01 08:41:11;;;;;;;3.23;2.40;;;;;;;19.06;58.22;101428.75;5090876;28;20243;-60
2022/01/01 08:43:38;;;;;;;5.03;2.87;;;;;;;19.08;57.84;101425.56;5089327;28;20650;-60
2022/01/01 08:46:03;;;;;;;5.00;2.97;;;;;;;19.10;57.97;101426.88;5092111;28;20242;-59
2022/01/01 08:48:29;;;;;;;3.17;2.23;;;;;;;19.08;58.41;101425.56;5082490;28;20945;-60
2022/01/01 08:50:54;;;;;;;3.37;2.20;;;;;;;19.08;57.82;101426.41;5092170;28;20233;-60
2022/01/01 08:53:20;;;;;;;3.40;2.60;;;;;;;19.10;57.86;101428.88;5091956;28;20174;-60
2022/01/01 08:55:45;;;;;;;3.83;2.50;;;;;;;19.08;57.80;101428.41;5092443;28;20633;-59
2022/01/01 08:58:10;;;;;;;3.70;2.70;;;;;;;19.07;58.20;101433.28;5091642;28;20224;-61
2022/01/01 09:00:36;;;;;;;3.90;2.23;;;;;;;19.06;57.94;101437.34;5091840;28;20508;-60
2022/01/01 09:03:01;;;;;;;4.17;2.23;;;;;;;19.10;57.71;101440.31;5073342;28;20534;-60
2022/01/01 09:05:27;;;;;;;3.60;2.20;;;;;;;19.08;57.78;101443.56;5091590;28;20171;-60
2022/01/01 09:07:53;;;;;;;3.97;2.40;;;;;;;19.11;57.75;101442.03;5090942;28;20221;-60
2022/01/01 09:10:20;;;;;;;4.10;2.20;;;;;;;19.07;58.03;101441.88;5091847;28;20917;-60
2022/01/01 09:12:45;;;;;;;4.77;2.70;;;;;;;19.14;57.36;101439.28;5091789;28;20159;-60
2022/01/01 09:15:11;;;;;;;4.17;2.63;;;;;;;19.12;57.66;101446.56;5091692;28;20419;-59
2022/01/01 09:17:36;;;;;;;4.17;2.57;;;;;;;19.12;58.26;101446.56;5087975;28;20172;-60
2022/01/01 09:20:02;;;;;;;3.87;2.20;;;;;;;19.14;57.55;101447.88;5071184;28;20293;-60
2022/01/01 09:22:28;;;;;;;3.27;2.20;;;;;;;19.10;58.27;101446.06;5070826;28;20696;-60
2022/01/01 09:24:53;;;;;;;3.87;2.00;;;;;;;19.10;57.74;101444.03;5070465;28;20470;-59
2022/01/01 09:27:19;;;;;;;3.40;2.17;;;;;;;19.10;58.09;101437.47;5070016;28;20190;-60
2022/01/01 09:29:44;;;;;;;3.73;2.53;;;;;;;19.11;58.04;101447.75;5071505;28;20187;-60
2022/01/01 09:32:10;;;;;;;3.70;2.23;;;;;;;19.11;57.97;101442.03;5071356;28;20171;-60
2022/01/01 09:34:36;;;;;;;3.97;2.60;;;;;;;19.12;57.74;101455.13;5071143;28;20167;-60
2022/01/01 09:37:02;;;;;;;4.10;2.03;;;;;;;19.13;57.82;101456.81;5070943;28;20175;-60
2022/01/01 09:39:27;;;;;;;4.20;2.43;;;;;;;19.15;57.58;101446.66;5071020;28;20175;-60
2022/01/01 09:41:52;;;;;;;3.57;2.47;;;;;;;19.13;57.81;101449.06;5062658;28;20180;-60
2022/01/01 09:44:18;;;;;;;4.27;2.20;;;;;;;19.15;57.67;101455.25;5065801;28;20194;-59
2022/01/01 09:46:45;;;;;;;3.30;2.20;;;;;;;19.16;58.07;101445.47;5070340;28;20574;-59
2022/01/01 09:49:14;;;;;;;3.13;2.20;;;;;;;19.15;57.91;101449.53;5070521;28;20191;-59
2022/01/01 09:51:40;;;;;;;4.47;2.57;;;;;;;19.15;57.65;101451.53;5070852;28;20500;-61
2022/01/01 09:54:06;;;;;;;3.23;2.03;;;;;;;19.17;57.82;101450.00;5071280;28;20424;-60
2022/01/01 09:56:31;;;;;;;3.17;2.10;;;;;;;19.19;57.45;101452.50;5052333;28;20171;-60
2022/01/01 09:58:56;;;;;;;4.20;2.43;;;;;;;19.16;57.79;101438.94;5069227;28;20226;-59
2022/01/01 10:01:22;;;;;;;2.93;2.00;;;;;;;19.16;57.68;101445.47;5068457;28;20159;-60
2022/01/01 10:03:50;;;;;;;3.67;2.40;;;;;;;19.21;57.48;101436.63;5070600;28;20167;-60
2022/01/01 10:06:16;;;;;;;3.77;1.90;;;;;;;19.17;57.76;101444.25;5070588;28;20198;-60
2022/01/01 10:08:47;;;;;;;2.50;1.70;;;;;;;19.20;57.39;101439.84;5070016;28;20863;-59
2022/01/01 10:11:16;;;;;;;2.87;2.30;;;;;;;19.18;57.49;101436.53;5070126;28;20546;-60
2022/01/01 10:13:41;;;;;;;3.77;2.30;;;;;;;19.20;57.70;101445.56;5070472;28;20865;-60
2022/01/01 10:16:09;;;;;;;3.50;2.23;;;;;;;19.24;57.39;101440.84;5070006;28;20418;-60
2022/01/01 10:18:39;;;;;;;3.57;2.30;;;;;;;19.25;57.30;101434.78;5068544;28;20550;-61
2022/01/01 10:21:08;;;;;;;3.60;2.00;;;;;;;19.26;57.68;101438.47;5069507;28;20413;-60
2022/01/01 10:23:34;;;;;;;3.93;2.60;;;;;;;19.26;57.62;101444.22;5070060;28;20735;-59
2022/01/01 10:29:23;;;;;;;3.30;2.27;;;;;;;19.24;57.55;101443.72;5026998;28;20512;-60
2022/01/01 10:31:54;;;;;;;3.33;2.50;;;;;;;19.27;57.45;101440.97;5069686;28;20410;-60
2022/01/01 10:34:20;;;;;;;3.10;2.00;;;;;;;19.24;57.76;101424.50;5069221;28;20435;-60
2022/01/01 10:36:47;;;;;;;3.60;2.17;;;;;;;19.23;57.60;101419.13;5069103;28;20410;-60
2022/01/01 10:39:14;;;;;;;3.40;2.20;;;;;;;19.23;57.40;101428.59;5085496;28;20649;-59
2022/01/01 10:41:46;;;;;;;3.17;2.20;;;;;;;19.24;57.56;101420.81;5085807;28;20767;-60
2022/01/01 10:44:12;;;;;;;2.97;1.97;;;;;;;19.23;57.42;101417.13;5088676;28;20435;-60
2022/01/01 10:46:38;;;;;;;3.53;2.20;;;;;;;19.25;57.71;101408.16;5089547;28;20408;-60
2022/01/01 10:49:35;;;;;;;3.53;1.97;;;;;;;19.24;57.36;101406.50;5089900;28;20199;-60
2022/01/01 10:52:22;;;;;;;3.93;2.43;;;;;;;19.25;57.39;101402.44;5086245;28;20413;-60
2022/01/01 10:54:55;;;;;;;2.97;2.00;;;;;;;19.24;58.07;101404.47;5085700;28;20417;-60
2022/01/01 10:57:27;;;;;;;4.20;2.67;;;;;;;19.23;57.56;101405.69;5088950;28;20420;-60
2022/01/01 11:00:09;;;;;;;3.30;2.17;;;;;;;19.24;57.88;101398.75;5089645;28;20461;-60
2022/01/01 11:02:35;;;;;;;3.20;1.97;;;;;;;19.23;57.45;101391.38;5090169;28;20511;-60
2022/01/01 11:05:03;;;;;;;3.50;2.10;;;;;;;19.25;57.58;101391.81;5089313;28;20420;-60
2022/01/01 11:07:29;;;;;;;2.53;2.00;;;;;;;19.25;57.47;101385.25;5089136;28;20429;-60
2022/01/01 11:09:55;;;;;;;3.67;2.23;;;;;;;19.26;57.31;101376.31;5089170;28;20400;-60
2022/01/01 11:12:22;;;;;;;3.23;2.00;;;;;;;19.25;57.43;101380.38;5087902;28;20213;-60
2022/01/01 11:14:47;;;;;;;3.10;1.87;;;;;;;19.26;57.46;101376.31;5089927;28;20419;-60
2022/01/01 11:17:13;;;;;;;2.80;1.70;;;;;;;19.24;57.55;101367.25;5070137;28;20890;-60
2022/01/01 11:19:38;;;;;;;3.40;2.10;;;;;;;19.24;57.63;101370.13;5089043;28;20163;-60
2022/01/01 11:22:04;;;;;;;3.07;1.93;;;;;;;19.24;57.84;101367.25;5050973;28;20202;-60
2022/01/01 11:24:30;;;;;;;2.87;2.10;;;;;;;19.27;57.11;101362.84;5069151;28;20178;-59